Time;durP1;ratioP1;P1;durP2;ratioP2;P2;SDS_P1;SDS_P2;PMS_P1;PMS_P2;Temp;Humidity;BMP_temperature;BMP_pressure;BME280_temperature;BME280_humidity;BME280_pressure;Samples;Min_cycle;Max_cycle;Signal;HPM_P1;HPM_P2
2024/03/08 09:13:40;;;;;;;26.58;15.68;;;4.70;1.00;;;;;;6867771;19;2004766;-70
2024/03/08 09:16:10;;;;;;;26.00;16.42;;;4.90;1.00;;;;;;7220469;19;3047369;-70
2024/03/08 09:18:41;;;;;;;25.63;15.45;;;4.80;1.00;;;;;;7380648;19;20483;-70
2024/03/08 09:21:13;;;;;;;25.55;15.70;;;5.00;1.00;;;;;;7383398;19;20519;-71
2024/03/08 09:23:44;;;;;;;22.05;14.25;;;5.10;1.00;;;;;;7381687;19;20018;-70
2024/03/08 09:26:15;;;;;;;27.02;15.52;;;4.80;1.00;;;;;;7379986;19;20013;-71
2024/03/08 09:28:59;;;;;;;27.02;15.07;;;4.70;1.00;;;;;;7379787;19;20106;-70
2024/03/08 09:31:30;;;;;;;27.90;16.40;;;4.80;1.00;;;;;;7379681;19;20696;-70
2024/03/08 09:34:01;;;;;;;25.10;14.70;;;4.80;1.00;;;;;;7381482;19;20006;-70
2024/03/08 09:36:32;;;;;;;26.83;15.70;;;4.70;1.00;;;;;;7379051;19;20081;-71
2024/03/08 09:39:03;;;;;;;25.27;15.93;;;5.00;1.00;;;;;;7380736;19;20007;-71
2024/03/08 09:41:33;;;;;;;26.05;14.88;;;5.10;1.00;;;;;;7381067;19;20014;-71
2024/03/08 09:44:08;;;;;;;27.83;15.32;;;5.10;1.00;;;;;;7380703;19;20012;-71
2024/03/08 09:46:39;;;;;;;22.42;13.63;;;5.20;1.00;;;;;;7379370;19;20006;-71
2024/03/08 09:49:11;;;;;;;28.90;16.90;;;4.80;1.00;;;;;;7380693;19;20003;-71
2024/03/08 09:51:42;;;;;;;24.15;14.63;;;4.90;1.00;;;;;;7379927;19;20049;-71
2024/03/08 09:54:12;;;;;;;24.08;15.80;;;4.80;1.00;;;;;;7379638;19;20006;-70
2024/03/08 09:56:51;;;;;;;28.17;16.20;;;4.60;1.00;;;;;;7382360;19;20002;-70
2024/03/08 09:59:43;;;;;;;24.15;15.75;;;4.80;1.00;;;;;;7381427;19;20022;-70
2024/03/08 10:02:18;;;;;;;22.63;14.82;;;5.00;1.00;;;;;;6871222;19;2004109;-71
2024/03/08 10:04:53;;;;;;;27.92;15.45;;;5.00;1.00;;;;;;7380561;19;20535;-70
2024/03/08 10:07:24;;;;;;;25.90;15.05;;;5.30;1.00;;;;;;7382119;19;20009;-70
2024/03/08 10:09:55;;;;;;;24.60;14.52;;;5.20;1.00;;;;;;7380498;19;20027;-71
2024/03/08 10:12:25;;;;;;;27.40;15.38;;;5.40;1.00;;;;;;7381124;19;20014;-70
2024/03/08 10:14:59;;;;;;;26.83;16.05;;;5.70;1.00;;;;;;7378947;19;20010;-71
2024/03/08 10:17:32;;;;;;;26.80;15.25;;;5.50;1.00;;;;;;7378679;19;20006;-71
2024/03/08 10:20:04;;;;;;;24.98;14.38;;;5.80;1.00;;;;;;7380806;19;20443;-70
2024/03/08 10:22:35;;;;;;;29.15;15.68;;;5.80;1.00;;;;;;7381634;19;20028;-70
2024/03/08 10:25:06;;;;;;;25.92;15.38;;;5.70;1.00;;;;;;7379861;19;20047;-70
2024/03/08 10:27:37;;;;;;;26.20;15.30;;;5.50;1.00;;;;;;7379218;19;19998;-70
2024/03/08 10:30:15;;;;;;;23.92;15.45;;;5.60;1.00;;;;;;7381863;19;20003;-70
2024/03/08 10:32:46;;;;;;;28.80;16.30;;;6.00;1.00;;;;;;7376007;19;20014;-70
2024/03/08 10:35:20;;;;;;;21.33;14.40;;;5.50;1.00;;;;;;7375700;19;20370;-69
2024/03/08 10:37:58;;;;;;;26.58;15.20;;;5.80;1.00;;;;;;7373276;19;20372;-69
2024/03/08 10:40:29;;;;;;;26.35;15.73;;;5.70;1.00;;;;;;7377258;19;20688;-69
2024/03/08 10:43:02;;;;;;;28.00;16.08;;;5.70;1.00;;;;;;7377649;19;20002;-68
2024/03/08 10:45:41;;;;;;;32.05;15.93;;;5.90;1.00;;;;;;7378319;19;20007;-69
2024/03/08 10:48:27;;;;;;;27.48;15.68;;;6.20;1.00;;;;;;7378146;19;20078;-68
2024/03/08 10:50:59;;;;;;;24.42;15.00;;;6.40;1.00;;;;;;7377466;19;20384;-70
2024/03/08 10:53:32;;;;;;;24.77;15.70;;;6.30;1.00;;;;;;7379100;19;20007;-69
2024/03/08 10:56:07;;;;;;;26.92;16.02;;;6.30;1.00;;;;;;7375531;19;20023;-70
2024/03/08 10:58:39;;;;;;;25.55;15.50;;;6.30;1.00;;;;;;7375586;19;20033;-70
2024/03/08 11:01:11;;;;;;;25.05;14.77;;;6.50;1.00;;;;;;7377653;19;20014;-69
2024/03/08 11:03:51;;;;;;;23.20;14.75;;;6.20;1.00;;;;;;7377716;19;20014;-69
2024/03/08 11:06:26;;;;;;;26.35;15.98;;;6.00;1.00;;;;;;7377189;19;20601;-70
2024/03/08 11:08:58;;;;;;;24.15;15.45;;;6.10;1.00;;;;;;7375525;19;20086;-70
2024/03/08 11:11:30;;;;;;;27.75;16.10;;;6.00;1.00;;;;;;7379335;19;20007;-69
2024/03/08 11:14:05;;;;;;;25.15;15.70;;;6.40;1.00;;;;;;7373214;19;20026;-70
2024/03/08 11:16:47;;;;;;;25.95;16.65;;;6.10;1.00;;;;;;7374453;19;20031;-70
2024/03/08 11:19:28;;;;;;;24.98;15.50;;;6.20;1.00;;;;;;7377143;19;20014;-69
2024/03/08 11:22:07;;;;;;;26.30;16.23;;;6.10;1.00;;;;;;7376973;19;20022;-70
2024/03/08 11:24:44;;;;;;;29.83;16.30;;;6.30;1.00;;;;;;7369434;19;20002;-69
2024/03/08 11:27:15;;;;;;;26.85;16.60;;;6.20;1.00;;;;;;7376628;19;20011;-70
2024/03/08 11:29:45;;;;;;;26.83;17.10;;;6.50;1.00;;;;;;7373280;19;20580;-70
2024/03/08 11:32:21;;;;;;;28.15;16.40;;;6.60;1.00;;;;;;7375653;19;20010;-69
2024/03/08 11:34:54;;;;;;;23.48;15.30;;;6.80;1.00;;;;;;7374984;19;20025;-70
2024/03/08 11:37:25;;;;;;;26.15;15.73;;;6.90;1.00;;;;;;7376435;19;20010;-70
2024/03/08 11:39:58;;;;;;;24.83;15.20;;;7.10;1.00;;;;;;7375202;19;20035;-70
2024/03/08 11:42:33;;;;;;;27.95;16.02;;;6.70;1.00;;;;;;7376481;19;20019;-70
2024/03/08 11:45:11;;;;;;;29.98;16.15;;;6.90;1.00;;;;;;7373909;19;20035;-70
2024/03/08 11:47:46;;;;;;;26.88;16.25;;;7.10;1.00;;;;;;7377126;19;20013;-68
2024/03/08 11:50:18;;;;;;;26.63;16.15;;;7.00;1.00;;;;;;7371383;19;20362;-71
2024/03/08 11:52:49;;;;;;;31.05;18.55;;;7.40;1.00;;;;;;7376365;19;20017;-69
2024/03/08 11:55:20;;;;;;;27.30;17.30;;;6.90;1.00;;;;;;7375558;19;20011;-69
2024/03/08 11:57:51;;;;;;;24.80;16.40;;;7.20;1.00;;;;;;7376042;19;20003;-70
2024/03/08 12:00:26;;;;;;;27.13;16.88;;;7.40;1.00;;;;;;7373256;19;20014;-68
2024/03/08 12:03:09;;;;;;;28.08;16.83;;;7.60;1.00;;;;;;7374481;19;20011;-70
2024/03/08 12:05:39;;;;;;;25.92;16.50;;;7.40;1.00;;;;;;7372545;19;20017;-69
2024/03/08 12:08:13;;;;;;;29.55;17.17;;;7.50;1.00;;;;;;7375453;19;20017;-68
2024/03/08 12:10:44;;;;;;;30.38;17.55;;;7.10;1.00;;;;;;7374897;19;20074;-69
2024/03/08 12:13:14;;;;;;;29.00;17.55;;;7.00;1.00;;;;;;7375050;19;20513;-70
2024/03/08 12:15:44;;;;;;;27.63;17.73;;;7.60;1.00;;;;;;7373095;19;20002;-68
2024/03/08 12:18:17;;;;;;;26.05;15.80;;;7.40;1.00;;;;;;7374759;19;20014;-71
2024/03/08 12:20:50;;;;;;;28.83;17.33;;;7.40;1.00;;;;;;7372862;19;20006;-71
2024/03/08 12:23:20;;;;;;;26.55;16.33;;;7.50;1.00;;;;;;7358044;19;20538;-70
2024/03/08 12:25:51;;;;;;;28.60;17.65;;;7.70;1.00;;;;;;7359182;19;20022;-70
2024/03/08 12:28:22;;;;;;;30.10;17.73;;;7.50;1.00;;;;;;7360932;19;20893;-72
2024/03/08 12:30:54;;;;;;;29.85;17.33;;;7.50;1.00;;;;;;7358893;19;20021;-69
2024/03/08 12:33:27;;;;;;;29.85;16.73;;;7.40;1.00;;;;;;7349046;19;20107;-70
2024/03/08 12:35:58;;;;;;;26.73;16.80;;;7.80;1.00;;;;;;7345090;19;20072;-71
2024/03/08 12:38:31;;;;;;;30.10;17.67;;;8.00;1.00;;;;;;7356037;19;20370;-71
2024/03/08 12:41:02;;;;;;;26.17;17.23;;;8.00;1.00;;;;;;7360873;19;20018;-72
2024/03/08 12:43:31;;;;;;;30.52;19.88;;;8.00;1.00;;;;;;7365849;19;20045;-70
2024/03/08 12:46:05;;;;;;;28.92;18.25;;;8.10;1.00;;;;;;7366714;19;20045;-71
2024/03/08 12:48:40;;;;;;;25.70;16.73;;;8.10;1.00;;;;;;7369164;19;20382;-71
2024/03/08 12:51:11;;;;;;;30.00;18.27;;;8.00;1.00;;;;;;7361636;19;20010;-70
2024/03/08 12:53:44;;;;;;;26.75;18.00;;;7.80;1.00;;;;;;7359079;19;20619;-71
2024/03/08 12:56:14;;;;;;;28.27;16.98;;;8.00;1.00;;;;;;7367989;19;20010;-71
2024/03/08 12:58:45;;;;;;;27.92;17.23;;;8.10;1.00;;;;;;7366103;19;20006;-72
2024/03/08 13:01:17;;;;;;;28.77;18.17;;;8.20;1.00;;;;;;7360980;19;20639;-71
2024/03/08 13:03:51;;;;;;;26.45;16.75;;;8.30;1.00;;;;;;7360516;19;20027;-70
2024/03/08 13:06:24;;;;;;;25.30;16.92;;;8.20;1.00;;;;;;7361744;19;20010;-71
2024/03/08 13:08:54;;;;;;;29.80;18.02;;;8.50;1.00;;;;;;7365603;19;20408;-69
2024/03/08 13:11:26;;;;;;;28.20;17.08;;;8.70;1.00;;;;;;7367124;19;20105;-69
2024/03/08 13:13:59;;;;;;;26.70;16.60;;;8.70;1.00;;;;;;7367630;19;20022;-70
2024/03/08 13:16:29;;;;;;;27.50;18.13;;;8.80;1.00;;;;;;7367221;19;20018;-70
2024/03/08 13:19:02;;;;;;;26.88;18.30;;;8.50;1.00;;;;;;7368299;19;20019;-71
2024/03/08 13:21:33;;;;;;;28.95;17.85;;;8.60;1.00;;;;;;7368771;19;20366;-70
2024/03/08 13:24:03;;;;;;;31.48;17.40;;;8.80;1.00;;;;;;7367494;19;21041;-69
2024/03/08 13:26:33;;;;;;;27.60;16.60;;;9.00;1.00;;;;;;7364031;19;20481;-69
2024/03/08 13:29:06;;;;;;;26.60;17.58;;;8.90;1.00;;;;;;7368657;19;20707;-71
2024/03/08 13:31:36;;;;;;;29.38;17.58;;;9.10;1.00;;;;;;7367725;19;20006;-70
2024/03/08 13:34:11;;;;;;;26.50;16.67;;;9.20;1.00;;;;;;7364681;19;20529;-70
2024/03/08 13:36:43;;;;;;;27.50;16.60;;;9.10;1.00;;;;;;7366162;19;20827;-71
2024/03/08 13:39:20;;;;;;;28.35;18.70;;;9.20;1.00;;;;;;7366509;19;20029;-70
2024/03/08 13:41:51;;;;;;;27.30;16.40;;;9.40;1.00;;;;;;7366017;19;20505;-70
2024/03/08 13:44:20;;;;;;;25.02;16.23;;;9.40;1.00;;;;;;7367058;19;20014;-70
2024/03/08 13:46:51;;;;;;;24.88;16.48;;;9.30;1.00;;;;;;7368028;19;20695;-70
2024/03/08 13:49:25;;;;;;;25.83;17.27;;;9.10;1.00;;;;;;7365274;19;20546;-69
2024/03/08 13:51:58;;;;;;;24.30;16.98;;;9.20;1.00;;;;;;7369027;19;20014;-71
2024/03/08 13:54:31;;;;;;;24.52;16.38;;;9.20;1.00;;;;;;7362154;19;20683;-69
2024/03/08 13:57:03;;;;;;;28.35;17.20;;;9.00;1.00;;;;;;7366600;19;20023;-70
2024/03/08 13:59:36;;;;;;;21.58;15.70;;;9.30;1.00;;;;;;7366593;19;20085;-71
2024/03/08 14:02:13;;;;;;;24.05;16.05;;;9.10;1.00;;;;;;7369711;19;20031;-70
2024/03/08 14:04:46;;;;;;;24.70;16.30;;;9.20;1.00;;;;;;7366699;19;20109;-71
2024/03/08 14:07:17;;;;;;;22.75;15.35;;;9.30;1.00;;;;;;7367488;19;20014;-70
2024/03/08 14:09:47;;;;;;;24.45;16.67;;;9.40;1.00;;;;;;7366979;19;20051;-71
2024/03/08 14:12:17;;;;;;;25.02;15.93;;;9.50;1.00;;;;;;7365927;19;20010;-70
2024/03/08 14:14:50;;;;;;;24.45;16.25;;;9.50;1.00;;;;;;7368881;19;20026;-70
2024/03/08 14:17:20;;;;;;;23.98;16.42;;;9.40;1.00;;;;;;7367859;19;20014;-70
2024/03/08 14:19:52;;;;;;;23.55;15.43;;;9.60;1.00;;;;;;7367895;19;20031;-70
2024/03/08 14:22:23;;;;;;;27.85;16.52;;;9.70;1.00;;;;;;7367679;19;20042;-70
2024/03/08 14:24:55;;;;;;;24.38;16.30;;;9.70;1.00;;;;;;7365608;19;20045;-71
2024/03/08 14:27:26;;;;;;;23.48;15.10;;;9.80;1.00;;;;;;7366233;19;20474;-69
2024/03/08 14:29:57;;;;;;;24.77;15.48;;;9.70;1.00;;;;;;7367551;19;20010;-70
2024/03/08 14:32:28;;;;;;;22.65;15.88;;;9.70;1.00;;;;;;7366704;19;20045;-71
2024/03/08 14:35:00;;;;;;;21.42;15.50;;;9.60;1.00;;;;;;7365232;19;20089;-70
2024/03/08 14:37:31;;;;;;;21.65;14.88;;;9.70;1.00;;;;;;7365390;19;20014;-71
2024/03/08 14:40:01;;;;;;;25.88;16.27;;;9.60;1.00;;;;;;7364655;19;20090;-71
2024/03/08 14:42:31;;;;;;;22.95;16.20;;;9.80;1.00;;;;;;7367310;19;20106;-70
2024/03/08 14:45:01;;;;;;;23.23;15.98;;;9.90;1.00;;;;;;7361287;19;20014;-71
2024/03/08 14:47:31;;;;;;;23.40;16.13;;;9.90;1.00;;;;;;7363616;19;20945;-71
2024/03/08 14:50:06;;;;;;;22.88;15.68;;;9.80;1.00;;;;;;7367038;19;20018;-70
2024/03/08 14:52:39;;;;;;;23.05;15.45;;;9.80;1.00;;;;;;7363329;19;20109;-69
2024/03/08 14:55:14;;;;;;;21.98;15.48;;;9.80;1.00;;;;;;7366219;19;20014;-70
2024/03/08 14:57:45;;;;;;;24.23;15.23;;;9.80;1.00;;;;;;7362140;19;20017;-71
2024/03/08 15:00:26;;;;;;;21.42;14.55;;;9.80;1.00;;;;;;7363343;19;20021;-70
2024/03/08 15:02:57;;;;;;;21.67;15.68;;;9.80;1.00;;;;;;7369636;19;20805;-70
2024/03/08 15:05:32;;;;;;;24.20;15.48;;;9.90;1.00;;;;;;7361473;19;20039;-71
2024/03/08 15:08:09;;;;;;;21.85;15.85;;;9.90;1.00;;;;;;7363291;19;20494;-71
2024/03/08 15:10:41;;;;;;;24.00;16.48;;;10.00;1.00;;;;;;7367136;19;20445;-70
2024/03/08 15:13:21;;;;;;;22.27;15.63;;;9.90;1.00;;;;;;7364579;19;20315;-70
2024/03/08 15:15:57;;;;;;;22.02;15.15;;;9.90;1.00;;;;;;7356391;19;20010;-70
2024/03/08 15:18:34;;;;;;;22.42;14.98;;;10.00;1.00;;;;;;7364372;19;20010;-70
2024/03/08 15:21:09;;;;;;;25.33;16.60;;;10.00;1.00;;;;;;7365430;19;20031;-69
2024/03/08 15:23:43;;;;;;;;;;;10.00;1.00;;;;;;7365027;19;20010;-69
2024/03/08 15:26:13;;;;;;;21.95;14.88;;;10.00;1.00;;;;;;7362799;19;19919;-70
2024/03/08 15:28:45;;;;;;;25.35;15.57;;;10.00;1.00;;;;;;7363207;19;20105;-70
2024/03/08 15:31:15;;;;;;;23.90;14.88;;;10.10;1.00;;;;;;7365209;19;20036;-71
2024/03/08 15:33:48;;;;;;;21.13;14.30;;;10.10;1.00;;;;;;7363676;19;20075;-70
2024/03/08 15:36:21;;;;;;;22.02;15.07;;;10.10;1.00;;;;;;7362867;19;20043;-71
2024/03/08 15:38:51;;;;;;;22.65;15.18;;;10.00;1.00;;;;;;7361467;19;20021;-71
2024/03/08 15:41:22;;;;;;;23.17;15.52;;;10.10;1.00;;;;;;7363584;19;20014;-71
2024/03/08 15:43:52;;;;;;;20.50;14.32;;;10.10;1.00;;;;;;7361527;19;20018;-71
2024/03/08 15:46:22;;;;;;;23.35;15.50;;;10.10;1.00;;;;;;7359005;19;20025;-71
2024/03/08 15:48:54;;;;;;;24.23;15.05;;;10.10;1.00;;;;;;7362479;19;20035;-70
2024/03/08 15:51:26;;;;;;;20.17;13.90;;;10.10;1.00;;;;;;7362776;19;20085;-71
2024/03/08 15:53:56;;;;;;;20.88;13.77;;;10.10;1.00;;;;;;7360848;19;20387;-70
2024/03/08 15:56:27;;;;;;;19.92;14.10;;;10.10;1.00;;;;;;7359773;19;20039;-70
2024/03/08 15:58:57;;;;;;;17.95;13.63;;;10.00;1.00;;;;;;7363113;19;20035;-71
2024/03/08 16:01:27;;;;;;;20.52;14.43;;;10.10;1.00;;;;;;7360283;19;20011;-70
2024/03/08 16:03:58;;;;;;;21.63;14.52;;;10.00;1.00;;;;;;7373950;19;20010;-70
2024/03/08 16:06:31;;;;;;;22.55;15.70;;;10.10;1.00;;;;;;7374142;19;20014;-71
2024/03/08 16:09:01;;;;;;;19.70;13.77;;;10.00;1.00;;;;;;7375531;19;20438;-72
2024/03/08 16:11:32;;;;;;;21.45;15.18;;;10.00;1.00;;;;;;7372535;19;20010;-70
2024/03/08 16:14:03;;;;;;;21.73;14.32;;;10.00;1.00;;;;;;7371933;19;20062;-71
2024/03/08 16:16:33;;;;;;;20.77;14.77;;;9.90;1.00;;;;;;7374732;19;20104;-71
2024/03/08 16:19:07;;;;;;;23.48;15.85;;;10.00;1.00;;;;;;7380782;19;20049;-70
2024/03/08 16:21:39;;;;;;;22.42;14.98;;;9.90;1.00;;;;;;7380786;19;20018;-70
2024/03/08 16:24:09;;;;;;;21.27;14.38;;;10.00;1.00;;;;;;7382051;19;20010;-69
2024/03/08 16:26:41;;;;;;;19.30;14.45;;;9.80;1.00;;;;;;7380687;19;20014;-71
2024/03/08 16:29:14;;;;;;;26.20;16.65;;;9.80;1.00;;;;;;7381173;19;20006;-73
2024/03/08 16:31:45;;;;;;;22.10;15.03;;;9.90;1.00;;;;;;7383127;19;20123;-70
2024/03/08 16:34:16;;;;;;;21.45;14.98;;;9.90;1.00;;;;;;7381126;19;20078;-72
2024/03/08 16:36:49;;;;;;;20.45;14.27;;;9.70;1.00;;;;;;7380645;19;20018;-70
2024/03/08 16:39:19;;;;;;;22.50;14.18;;;9.70;1.00;;;;;;7382240;19;20048;-71
2024/03/08 16:41:52;;;;;;;22.27;14.27;;;9.70;1.00;;;;;;7381462;19;20014;-70
2024/03/08 16:44:24;;;;;;;20.75;13.80;;;9.60;1.00;;;;;;7382191;19;20415;-70
2024/03/08 16:46:54;;;;;;;20.98;13.98;;;9.40;1.00;;;;;;7381611;19;20093;-71
2024/03/08 16:49:24;;;;;;;19.60;13.90;;;9.30;1.00;;;;;;7380579;19;20006;-71
2024/03/08 16:51:57;;;;;;;21.98;15.02;;;9.30;1.00;;;;;;7380702;19;20724;-71
2024/03/08 16:54:28;;;;;;;19.13;13.93;;;9.30;1.00;;;;;;7377907;19;20434;-71
2024/03/08 16:57:14;;;;;;;20.90;14.35;;;9.20;1.00;;;;;;7379257;19;20007;-72
2024/03/08 16:59:44;;;;;;;19.65;13.48;;;9.40;1.00;;;;;;7381543;19;20017;-70
2024/03/08 17:02:14;;;;;;;22.52;15.30;;;9.20;1.00;;;;;;7379164;19;20031;-70
2024/03/08 17:04:44;;;;;;;22.45;15.13;;;9.20;1.00;;;;;;7382734;19;20010;-70
2024/03/08 17:07:16;;;;;;;21.95;15.13;;;9.10;1.00;;;;;;7383716;19;20016;-71
2024/03/08 17:09:46;;;;;;;21.15;15.10;;;9.10;1.00;;;;;;7382144;19;20011;-70
2024/03/08 17:12:18;;;;;;;22.58;16.00;;;9.10;1.00;;;;;;7381780;19;20015;-70
2024/03/08 17:14:49;;;;;;;24.70;16.90;;;9.00;1.00;;;;;;7371681;19;20089;-72
2024/03/08 17:17:18;;;;;;;26.70;17.88;;;9.00;1.00;;;;;;7375673;19;20011;-70
2024/03/08 17:19:50;;;;;;;33.92;22.73;;;8.90;1.00;;;;;;7369735;19;20015;-70
2024/03/08 17:22:24;;;;;;;25.15;17.35;;;8.80;1.00;;;;;;7369118;19;20780;-70
2024/03/08 17:24:54;;;;;;;23.48;15.80;;;8.70;1.00;;;;;;7363594;19;20010;-70
2024/03/08 17:27:25;;;;;;;23.92;15.57;;;8.60;1.00;;;;;;7368043;19;20010;-70
2024/03/08 17:29:55;;;;;;;23.30;15.75;;;8.50;1.00;;;;;;7370057;19;20011;-70
2024/03/08 17:32:26;;;;;;;24.83;15.57;;;8.60;1.00;;;;;;7370982;19;20393;-70
2024/03/08 17:34:56;;;;;;;23.67;15.27;;;8.50;1.00;;;;;;7366191;19;20027;-70
2024/03/08 17:37:29;;;;;;;22.85;15.55;;;8.40;1.00;;;;;;7364023;19;20010;-70
2024/03/08 17:39:59;;;;;;;22.80;14.40;;;8.30;1.00;;;;;;7364687;19;20050;-71
2024/03/08 17:42:31;;;;;;;23.83;15.63;;;8.40;1.00;;;;;;7368310;19;20093;-70
2024/03/08 17:45:01;;;;;;;22.60;15.40;;;8.20;1.00;;;;;;7366366;19;20021;-71
2024/03/08 17:47:31;;;;;;;26.40;16.75;;;8.30;1.00;;;;;;7366516;19;20016;-69
2024/03/08 17:50:05;;;;;;;24.00;16.80;;;8.10;1.00;;;;;;7368183;19;20010;-71
2024/03/08 17:52:39;;;;;;;23.67;15.73;;;8.00;1.00;;;;;;7364574;19;20354;-70
2024/03/08 17:55:13;;;;;;;27.98;15.57;;;8.20;1.00;;;;;;7365114;19;20775;-71
2024/03/08 17:57:45;;;;;;;24.08;15.40;;;8.30;1.00;;;;;;7366494;19;20018;-72
2024/03/08 18:00:25;;;;;;;21.33;13.93;;;8.30;1.00;;;;;;7367405;19;20022;-74
2024/03/08 18:02:54;;;;;;;22.73;14.38;;;8.30;1.00;;;;;;7365374;19;20497;-73
2024/03/08 18:05:30;;;;;;;24.10;14.65;;;8.30;1.00;;;;;;7366016;19;20033;-72
2024/03/08 18:08:03;;;;;;;21.55;15.13;;;8.30;1.00;;;;;;7366287;19;20010;-73
2024/03/08 18:10:34;;;;;;;21.50;14.57;;;8.30;1.00;;;;;;7367778;19;20011;-73
2024/03/08 18:13:11;;;;;;;24.80;15.52;;;8.20;1.00;;;;;;7368113;19;20006;-71
2024/03/08 18:15:41;;;;;;;24.55;15.13;;;8.20;1.00;;;;;;7364464;19;20018;-73
2024/03/08 18:18:12;;;;;;;21.52;13.68;;;8.10;1.00;;;;;;7368682;19;20095;-72
2024/03/08 18:20:46;;;;;;;26.70;15.93;;;8.00;1.00;;;;;;7369761;19;20017;-72
2024/03/08 18:23:22;;;;;;;21.73;15.25;;;8.00;1.00;;;;;;7369447;19;20018;-72
2024/03/08 18:25:54;;;;;;;23.93;15.90;;;8.00;1.00;;;;;;7367632;19;20018;-72
2024/03/08 18:28:26;;;;;;;23.92;14.57;;;7.80;1.00;;;;;;7369317;19;20766;-72
2024/03/08 18:30:57;;;;;;;22.20;14.15;;;7.60;1.00;;;;;;7369391;19;24308;-72
2024/03/08 18:33:27;;;;;;;20.73;13.65;;;7.60;1.00;;;;;;7370101;19;20031;-72
2024/03/08 18:35:58;;;;;;;22.48;14.82;;;7.70;1.00;;;;;;7367299;19;20421;-72
2024/03/08 18:38:31;;;;;;;23.73;16.05;;;7.60;1.00;;;;;;7367875;19;20048;-71
2024/03/08 18:41:01;;;;;;;21.58;14.13;;;7.50;1.00;;;;;;7368403;19;20014;-73
2024/03/08 18:43:33;;;;;;;22.63;15.70;;;7.40;1.00;;;;;;7367392;19;20010;-71
2024/03/08 18:46:04;;;;;;;20.63;13.73;;;7.30;1.00;;;;;;7367079;19;20498;-71
2024/03/08 18:48:35;;;;;;;19.95;12.82;;;7.20;1.00;;;;;;7367834;19;20014;-73
2024/03/08 18:51:05;;;;;;;18.08;13.10;;;7.20;1.00;;;;;;7369242;19;20006;-72
2024/03/08 18:53:41;;;;;;;19.33;13.02;;;7.20;1.00;;;;;;7367934;19;20021;-73
2024/03/08 18:56:14;;;;;;;21.35;12.77;;;7.10;1.00;;;;;;7367938;19;20010;-72
2024/03/08 18:58:44;;;;;;;18.42;12.20;;;7.20;1.00;;;;;;7366435;19;20093;-72
2024/03/08 19:01:20;;;;;;;18.80;12.45;;;7.10;1.00;;;;;;7366487;19;20014;-72
2024/03/08 19:03:51;;;;;;;17.60;11.15;;;7.10;1.00;;;;;;7366585;19;20014;-72
2024/03/08 19:06:21;;;;;;;20.83;13.98;;;7.10;1.00;;;;;;7365215;19;20040;-72
2024/03/08 19:08:54;;;;;;;19.00;12.18;;;7.10;1.00;;;;;;7368126;19;20014;-72
2024/03/08 19:11:26;;;;;;;19.63;12.60;;;6.90;1.00;;;;;;7366692;19;20031;-73
2024/03/08 19:13:56;;;;;;;21.67;13.25;;;6.80;1.00;;;;;;7366301;19;20170;-72
2024/03/08 19:16:26;;;;;;;20.30;13.07;;;7.00;1.00;;;;;;7365927;19;20010;-72
2024/03/08 19:18:56;;;;;;;20.15;13.40;;;6.90;1.00;;;;;;7366990;19;20585;-73
2024/03/08 19:21:27;;;;;;;18.77;11.38;;;6.80;1.00;;;;;;7364524;19;20011;-71
2024/03/08 19:24:04;;;;;;;18.67;13.10;;;6.70;1.00;;;;;;7366442;19;20071;-71
2024/03/08 19:26:34;;;;;;;21.35;12.60;;;6.80;1.00;;;;;;7366297;19;20014;-72
2024/03/08 19:29:05;;;;;;;19.52;12.27;;;6.80;1.00;;;;;;7366395;19;20014;-70
2024/03/08 19:31:35;;;;;;;18.73;12.73;;;6.80;1.00;;;;;;7367365;19;20007;-72
2024/03/08 19:34:08;;;;;;;18.25;12.23;;;6.70;1.00;;;;;;7367149;19;20505;-72
2024/03/08 19:36:39;;;;;;;17.08;10.90;;;6.60;1.00;;;;;;7365209;19;20303;-72
2024/03/08 19:39:13;;;;;;;16.95;10.52;;;6.50;1.00;;;;;;7367173;19;20031;-72
2024/03/08 19:41:43;;;;;;;18.13;11.63;;;6.50;1.00;;;;;;7366778;19;20023;-72
2024/03/08 19:44:14;;;;;;;17.15;11.10;;;6.50;1.00;;;;;;7365837;19;20026;-72
2024/03/08 19:46:45;;;;;;;20.10;12.02;;;6.30;1.00;;;;;;7364221;19;20007;-71
2024/03/08 19:49:16;;;;;;;19.35;12.07;;;6.40;1.00;;;;;;7367138;19;20003;-72
2024/03/08 19:51:48;;;;;;;21.20;14.40;;;6.30;1.00;;;;;;7362494;19;20633;-72
2024/03/08 19:54:20;;;;;;;16.75;11.40;;;6.30;1.00;;;;;;7366531;19;20014;-71
2024/03/08 19:56:51;;;;;;;21.27;11.20;;;6.20;1.00;;;;;;7365301;19;20886;-72
2024/03/08 19:59:23;;;;;;;17.33;11.70;;;6.30;1.00;;;;;;7365338;19;20017;-72
2024/03/08 20:01:55;;;;;;;20.98;13.93;;;6.40;1.00;;;;;;7365639;19;20039;-71
2024/03/08 20:04:26;;;;;;;17.83;11.32;;;6.40;1.00;;;;;;7367332;19;20023;-73
2024/03/08 20:06:56;;;;;;;15.60;10.65;;;6.40;1.00;;;;;;7367374;19;20017;-71
2024/03/08 20:09:29;;;;;;;16.42;10.93;;;6.30;1.00;;;;;;7366668;19;20011;-72
2024/03/08 20:11:59;;;;;;;16.17;11.48;;;6.20;1.00;;;;;;7362389;19;20110;-73
2024/03/08 20:14:31;;;;;;;18.20;11.77;;;6.20;1.00;;;;;;7365980;19;20010;-72
2024/03/08 20:17:03;;;;;;;18.80;11.75;;;6.10;1.00;;;;;;7361884;19;20687;-73
2024/03/08 20:19:34;;;;;;;20.60;12.00;;;6.00;1.00;;;;;;7366286;19;20369;-72
2024/03/08 20:22:04;;;;;;;17.50;12.00;;;5.90;1.00;;;;;;7365810;19;20017;-72
2024/03/08 20:24:36;;;;;;;22.60;12.48;;;5.90;1.00;;;;;;7362943;19;21184;-71
2024/03/08 20:27:06;;;;;;;17.60;11.50;;;5.90;1.00;;;;;;7365918;19;20037;-71
2024/03/08 20:29:36;;;;;;;18.00;11.55;;;5.80;1.00;;;;;;7363122;19;20010;-72
2024/03/08 20:32:07;;;;;;;16.63;11.43;;;5.60;1.00;;;;;;7365860;19;20011;-73
2024/03/08 20:34:38;;;;;;;18.85;12.13;;;5.70;1.00;;;;;;7362338;19;20014;-73
2024/03/08 20:37:09;;;;;;;16.33;10.88;;;5.60;1.00;;;;;;7363708;19;20014;-73
2024/03/08 20:39:42;;;;;;;18.80;12.70;;;5.50;1.00;;;;;;7361392;19;20025;-73
2024/03/08 20:42:13;;;;;;;20.40;11.85;;;5.40;1.00;;;;;;7357499;19;20026;-72
2024/03/08 20:44:43;;;;;;;19.75;11.98;;;5.30;1.00;;;;;;7362369;19;20014;-71
2024/03/08 20:47:13;;;;;;;17.88;11.60;;;5.20;1.00;;;;;;7363986;19;20043;-70
2024/03/08 20:49:43;;;;;;;17.02;11.73;;;5.20;1.00;;;;;;7365620;19;20011;-71
2024/03/08 20:52:13;;;;;;;16.90;10.60;;;5.20;1.00;;;;;;7363734;19;20066;-72
2024/03/08 20:54:47;;;;;;;17.17;11.88;;;5.20;1.00;;;;;;7362724;19;20015;-73
2024/03/08 20:57:17;;;;;;;17.85;11.90;;;5.10;1.00;;;;;;7364317;19;20026;-71
2024/03/08 20:59:48;;;;;;;20.77;13.18;;;5.30;1.00;;;;;;7362147;19;20499;-69
2024/03/08 21:02:16;;;;;;;24.83;12.73;;;5.50;1.00;;;;;;7367632;19;20700;-71
2024/03/08 21:04:48;;;;;;;19.67;12.13;;;5.30;1.00;;;;;;7370209;19;20018;-71
2024/03/08 21:07:19;;;;;;;17.50;11.98;;;5.10;1.00;;;;;;7370412;19;20007;-71
2024/03/08 21:09:52;;;;;;;19.05;11.88;;;4.90;1.00;;;;;;7370015;19;20017;-71
2024/03/08 21:12:22;;;;;;;16.98;10.63;;;4.90;1.00;;;;;;7369655;19;20010;-71
2024/03/08 21:14:54;;;;;;;22.00;12.50;;;4.80;1.00;;;;;;7369264;19;20006;-71
2024/03/08 21:17:24;;;;;;;20.55;12.13;;;4.80;1.00;;;;;;7368055;19;20702;-70
2024/03/08 21:19:56;;;;;;;23.35;13.18;;;5.00;1.00;;;;;;7369442;19;20011;-71
2024/03/08 21:22:26;;;;;;;19.63;12.05;;;4.90;1.00;;;;;;7369665;19;20062;-70
2024/03/08 21:24:59;;;;;;;19.88;12.07;;;4.90;1.00;;;;;;7367717;19;20011;-70
2024/03/08 21:27:30;;;;;;;19.23;12.00;;;4.90;1.00;;;;;;7367931;19;20021;-70
2024/03/08 21:30:00;;;;;;;18.10;11.10;;;4.90;1.00;;;;;;7367561;19;20014;-71
2024/03/08 21:32:30;;;;;;;18.02;11.57;;;4.90;1.00;;;;;;7369470;19;20039;-71
2024/03/08 21:35:01;;;;;;;18.98;12.02;;;4.80;1.00;;;;;;7368243;19;20377;-70
2024/03/08 21:37:31;;;;;;;18.52;12.25;;;4.70;1.00;;;;;;7368746;19;20011;-69
2024/03/08 21:40:10;;;;;;;17.70;11.43;;;4.70;1.00;;;;;;7368728;19;20019;-70
2024/03/08 21:42:42;;;;;;;20.15;11.43;;;4.80;1.00;;;;;;7369359;19;20478;-70
2024/03/08 21:45:16;;;;;;;19.35;11.65;;;4.80;1.00;;;;;;7368386;19;20074;-70
2024/03/08 21:47:46;;;;;;;20.83;12.48;;;4.70;1.00;;;;;;7368112;19;20031;-70
2024/03/08 21:50:16;;;;;;;19.80;11.85;;;4.60;1.00;;;;;;7370495;19;20010;-71
2024/03/08 21:52:48;;;;;;;18.50;11.60;;;4.50;1.00;;;;;;7369094;19;20511;-71
2024/03/08 21:55:21;;;;;;;18.13;11.50;;;4.40;1.00;;;;;;7369393;19;20125;-71
2024/03/08 21:57:52;;;;;;;18.20;10.82;;;4.30;1.00;;;;;;7364523;19;20040;-70
2024/03/08 22:00:23;;;;;;;16.40;10.60;;;4.20;1.00;;;;;;7367484;19;20018;-72
2024/03/08 22:02:53;;;;;;;17.60;10.98;;;4.20;1.00;;;;;;7368461;19;20014;-72
2024/03/08 22:05:25;;;;;;;17.88;11.18;;;4.20;1.00;;;;;;7368761;19;20035;-72
2024/03/08 22:07:55;;;;;;;22.60;13.23;;;4.20;1.00;;;;;;7368301;19;20110;-71
2024/03/08 22:10:29;;;;;;;20.48;12.27;;;4.10;1.00;;;;;;7367822;19;20462;-69
2024/03/08 22:13:00;;;;;;;17.67;11.30;;;4.10;1.00;;;;;;7367447;19;20029;-70
2024/03/08 22:15:30;;;;;;;18.88;11.30;;;4.00;1.00;;;;;;7366349;19;20013;-69
2024/03/08 22:18:00;;;;;;;21.25;12.57;;;4.00;1.00;;;;;;7368504;19;20004;-70
2024/03/08 22:20:31;;;;;;;18.92;12.10;;;4.10;1.00;;;;;;7369075;19;20390;-70
2024/03/08 22:23:05;;;;;;;23.58;13.52;;;4.10;1.00;;;;;;7369584;19;20014;-70